createdAt,value
2022-12-15T05:17:41.826Z,24.23
2022-12-15T05:20:29.401Z,35.63
2022-12-15T05:23:17.984Z,26.05
2022-12-15T05:26:05.104Z,24.10
2022-12-15T05:28:52.684Z,23.90
2022-12-15T05:31:39.370Z,28.77
2022-12-15T05:34:07.123Z,33.03
2022-12-15T05:36:35.040Z,54.83
2022-12-15T05:39:04.164Z,58.25
2022-12-15T05:41:32.477Z,42.58
2022-12-15T05:44:01.704Z,32.90
2022-12-15T05:46:29.859Z,27.42
2022-12-15T05:48:58.061Z,25.83
2022-12-15T05:51:26.025Z,30.55
2022-12-15T05:53:54.780Z,48.33
2022-12-15T05:56:22.731Z,46.42
2022-12-15T05:58:50.742Z,45.75
2022-12-15T06:01:20.250Z,37.00
2022-12-15T06:03:48.205Z,31.20
2022-12-15T06:06:16.574Z,34.17
2022-12-15T06:08:44.893Z,35.28
2022-12-15T06:11:15.737Z,56.58
2022-12-15T06:13:45.640Z,43.05
2022-12-15T06:16:19.764Z,34.17
2022-12-15T06:18:54.476Z,35.28
2022-12-15T06:21:35.787Z,36.83
2022-12-15T06:24:08.124Z,30.65
2022-12-15T06:26:40.261Z,25.42
2022-12-15T06:29:12.844Z,29.35
2022-12-15T06:31:41.829Z,26.00
2022-12-15T06:34:15.863Z,28.08
2022-12-15T06:36:44.339Z,27.90
2022-12-15T06:39:15.622Z,31.48
2022-12-15T06:41:44.075Z,23.30
2022-12-15T06:44:16.791Z,26.65
2022-12-15T06:46:46.968Z,24.98
2022-12-15T06:49:15.391Z,25.42
2022-12-15T06:51:45.246Z,25.75
2022-12-15T06:54:13.913Z,38.30
2022-12-15T06:56:42.651Z,35.85
2022-12-15T06:59:12.132Z,30.25
2022-12-15T07:01:42.149Z,20.90
2022-12-15T07:04:14.325Z,41.65
2022-12-15T07:09:17.692Z,39.97
2022-12-15T07:11:50.700Z,31.42
2022-12-15T07:14:23.156Z,31.40
2022-12-15T07:16:57.692Z,29.75
2022-12-15T07:19:26.651Z,31.45
2022-12-15T07:22:00.081Z,27.42
2022-12-15T07:26:59.087Z,27.65
2022-12-15T07:29:29.033Z,27.42
2022-12-15T07:32:03.974Z,28.90
2022-12-15T07:34:32.339Z,31.77
2022-12-15T07:37:00.588Z,28.75
2022-12-15T07:39:28.557Z,32.45
2022-12-15T07:41:57.864Z,28.42
2022-12-15T07:44:26.700Z,29.23
2022-12-15T07:46:55.581Z,32.35
2022-12-15T07:49:23.972Z,37.20
2022-12-15T07:51:52.046Z,29.55
2022-12-15T07:54:20.949Z,30.20
2022-12-15T07:56:50.360Z,27.33
2022-12-15T07:59:19.898Z,30.95
2022-12-15T08:01:48.155Z,26.05
2022-12-15T08:04:17.330Z,27.00
2022-12-15T08:06:45.965Z,27.92
2022-12-15T08:09:14.207Z,30.70
2022-12-15T08:11:43.335Z,27.83
2022-12-15T08:14:16.940Z,28.45
2022-12-15T08:16:55.829Z,27.27
2022-12-15T08:19:25.986Z,33.33
2022-12-15T08:21:54.507Z,31.98
2022-12-15T08:24:24.515Z,51.65
2022-12-15T08:26:53.424Z,40.35
2022-12-15T08:32:12.680Z,36.60
2022-12-15T08:34:42.697Z,35.20
2022-12-15T08:37:12.638Z,62.17
2022-12-15T08:39:41.336Z,55.17
2022-12-15T08:42:11.067Z,58.95
2022-12-15T08:44:39.125Z,61.47
2022-12-15T08:47:08.445Z,41.40
2022-12-15T08:49:36.575Z,34.75
2022-12-15T08:52:04.841Z,33.38
2022-12-15T08:54:33.485Z,32.00
2022-12-15T08:57:04.085Z,31.02
2022-12-15T08:59:32.737Z,40.75
2022-12-15T09:02:02.129Z,44.83
2022-12-15T09:04:30.804Z,48.85
2022-12-15T09:06:59.511Z,88.70
2022-12-15T09:09:28.286Z,66.38
2022-12-15T09:11:56.497Z,42.88
2022-12-15T09:14:29.083Z,38.25
2022-12-15T09:16:57.955Z,36.10
2022-12-15T09:19:27.105Z,32.28
2022-12-15T09:21:56.093Z,31.63
2022-12-15T09:24:34.035Z,31.13
2022-12-15T09:27:03.728Z,29.38
2022-12-15T09:29:35.304Z,31.83
2022-12-15T09:32:08.980Z,33.65
2022-12-15T09:34:41.720Z,31.52
2022-12-15T09:37:09.643Z,32.10
2022-12-15T09:39:39.616Z,32.97
2022-12-15T09:42:27.616Z,47.65
2022-12-15T09:45:24.081Z,41.83
2022-12-15T09:48:10.075Z,41.42
2022-12-15T09:50:41.599Z,33.92
2022-12-15T09:56:34.570Z,33.22
2022-12-15T09:59:46.805Z,32.40
2022-12-15T10:02:22.113Z,30.77
2022-12-15T10:05:01.417Z,31.00
2022-12-15T10:07:41.052Z,29.60
2022-12-15T10:10:27.343Z,30.85
2022-12-15T10:13:02.501Z,29.00
2022-12-15T10:15:41.740Z,30.27
2022-12-15T10:19:16.449Z,30.40
2022-12-15T10:21:44.434Z,35.45
2022-12-15T10:24:51.741Z,37.75
2022-12-15T10:27:17.215Z,35.67
2022-12-15T10:30:17.556Z,33.00
2022-12-15T10:33:21.921Z,30.23
2022-12-15T10:35:54.452Z,35.30
2022-12-15T10:41:08.925Z,32.28
2022-12-15T10:43:43.458Z,37.15
2022-12-15T10:46:32.350Z,36.97
2022-12-15T10:49:23.004Z,36.13
2022-12-15T10:52:02.935Z,41.53
2022-12-15T10:54:37.460Z,32.70
2022-12-15T10:57:58.353Z,33.83
2022-12-15T11:00:32.951Z,34.63
2022-12-15T11:03:01.961Z,31.40
2022-12-15T11:05:32.378Z,30.75
2022-12-15T11:08:31.278Z,31.73
2022-12-15T11:11:19.033Z,29.25
2022-12-15T11:14:11.750Z,30.33
2022-12-15T11:16:50.642Z,30.52
2022-12-15T11:19:46.400Z,34.35
2022-12-15T11:22:42.078Z,31.65
2022-12-15T11:25:55.064Z,29.27
2022-12-15T11:28:41.094Z,28.67
2022-12-15T11:31:25.213Z,33.75
2022-12-15T11:33:56.335Z,27.80
2022-12-15T11:37:13.138Z,26.10
2022-12-15T11:40:15.408Z,26.42
2022-12-15T11:43:39.254Z,27.23
2022-12-15T11:46:54.666Z,24.23
2022-12-15T11:49:49.790Z,29.30
2022-12-15T11:52:22.647Z,25.95
2022-12-15T11:57:52.145Z,29.75
2022-12-15T12:00:23.833Z,28.10
2022-12-15T12:05:42.688Z,28.15
2022-12-15T12:09:21.549Z,28.73
2022-12-15T12:12:05.188Z,29.13
2022-12-15T12:14:45.837Z,31.33
2022-12-15T12:17:49.556Z,31.25
2022-12-15T12:20:54.666Z,31.13
2022-12-15T12:23:54.397Z,66.03
2022-12-15T12:27:12.729Z,37.10
2022-12-15T12:29:59.449Z,32.53
2022-12-15T12:33:21.502Z,30.45
2022-12-15T12:36:03.307Z,28.92
2022-12-15T12:38:41.680Z,27.90
2022-12-15T12:41:21.817Z,28.92
2022-12-15T12:43:58.980Z,29.17
2022-12-15T12:46:40.558Z,25.20
2022-12-15T12:49:42.946Z,43.65
2022-12-15T12:52:34.915Z,35.72
2022-12-15T12:55:26.146Z,38.80
2022-12-15T12:57:57.028Z,28.73
2022-12-15T13:00:32.749Z,49.30
2022-12-15T13:03:18.720Z,57.47
2022-12-15T13:05:50.781Z,57.17
2022-12-15T13:08:29.429Z,44.72
2022-12-15T13:11:53.783Z,66.60
2022-12-15T13:14:46.599Z,45.28
2022-12-15T13:17:39.370Z,48.88
2022-12-15T13:20:26.718Z,51.80
2022-12-15T13:23:20.605Z,62.38
2022-12-15T13:25:55.825Z,80.40
2022-12-15T13:28:37.501Z,44.80
2022-12-15T13:31:21.869Z,42.67
2022-12-15T13:33:50.797Z,36.35
2022-12-15T13:36:40.534Z,33.22
2022-12-15T13:39:18.502Z,37.00
2022-12-15T13:42:32.509Z,34.00
2022-12-15T13:44:52.515Z,34.63
2022-12-15T13:47:28.730Z,36.40
2022-12-15T13:50:30.951Z,52.97
2022-12-15T13:53:20.201Z,55.58
2022-12-15T13:56:39.263Z,75.55
2022-12-15T13:59:43.435Z,68.35
2022-12-15T14:02:38.769Z,56.10
2022-12-15T14:05:19.725Z,54.30
2022-12-15T14:08:03.737Z,76.05
2022-12-15T14:10:49.041Z,58.88
2022-12-15T14:13:37.410Z,77.38
2022-12-15T14:16:21.497Z,100.80
2022-12-15T14:21:57.837Z,75.97
2022-12-15T14:24:40.197Z,78.75
2022-12-15T14:27:10.446Z,97.72
2022-12-15T14:29:39.724Z,99.72
2022-12-15T14:32:10.698Z,98.60
2022-12-15T14:34:42.072Z,81.05
2022-12-15T14:37:20.258Z,58.45
2022-12-15T15:07:19.260Z,192.35
2022-12-15T15:09:47.890Z,106.30
2022-12-15T15:12:25.249Z,86.93
2022-12-15T15:15:08.620Z,86.95
2022-12-15T15:17:43.884Z,97.70
2022-12-15T15:20:38.436Z,92.10
2022-12-15T15:23:19.770Z,92.63
2022-12-15T15:28:41.183Z,95.15
2022-12-15T15:31:35.268Z,119.00
2022-12-15T15:34:11.622Z,158.48
2022-12-15T15:36:40.695Z,145.50
2022-12-15T15:39:16.119Z,150.63
2022-12-15T15:41:45.232Z,138.10
2022-12-15T15:44:16.034Z,114.35
2022-12-15T15:46:52.821Z,71.13
2022-12-15T15:49:24.761Z,55.00
2022-12-15T15:51:54.897Z,52.40
2022-12-15T15:54:28.737Z,49.15
2022-12-15T15:56:58.676Z,47.28
2022-12-15T15:59:29.173Z,45.42
2022-12-15T16:01:59.395Z,55.38
2022-12-15T16:04:29.615Z,94.13
2022-12-15T16:07:09.310Z,136.30
2022-12-15T16:09:40.986Z,100.20
2022-12-15T16:12:42.789Z,78.47
2022-12-15T16:15:20.993Z,67.53
2022-12-15T16:17:50.222Z,89.20
2022-12-15T16:20:21.895Z,73.82
2022-12-15T16:26:03.134Z,100.30
2022-12-15T16:31:01.806Z,79.22
2022-12-15T16:33:30.071Z,62.78
2022-12-15T16:36:00.250Z,55.00
2022-12-15T16:38:31.757Z,50.97
2022-12-15T16:43:59.599Z,43.97
2022-12-15T16:46:28.946Z,42.60
2022-12-15T16:49:00.040Z,44.55
2022-12-15T16:51:42.714Z,46.55
2022-12-15T16:54:23.660Z,46.35
2022-12-15T16:56:56.130Z,45.83
2022-12-15T16:59:36.243Z,51.25
2022-12-15T17:02:28.370Z,42.67
2022-12-15T17:04:57.579Z,49.47
2022-12-15T17:07:30.184Z,54.38
2022-12-15T17:12:27.051Z,42.65
2022-12-15T17:14:58.156Z,45.40
2022-12-15T17:17:28.768Z,49.33
2022-12-15T17:22:49.187Z,39.00
2022-12-15T17:25:46.147Z,37.63
2022-12-15T17:28:22.178Z,37.40
2022-12-15T17:30:52.871Z,40.45
2022-12-15T17:33:27.990Z,39.13
2022-12-15T17:36:03.216Z,41.60
2022-12-15T17:38:31.694Z,39.15
2022-12-15T17:41:02.056Z,38.50
2022-12-15T17:43:35.860Z,40.15
2022-12-15T17:46:04.907Z,40.58
2022-12-15T17:48:33.857Z,37.13
2022-12-15T17:51:02.853Z,37.17
2022-12-15T17:53:33.173Z,35.47
2022-12-15T17:56:03.848Z,36.67
2022-12-15T17:58:32.106Z,37.53
2022-12-15T18:01:00.336Z,36.67
2022-12-15T18:03:31.950Z,30.13
2022-12-15T18:06:00.523Z,42.65
2022-12-15T18:08:33.289Z,41.25
2022-12-15T18:11:03.884Z,40.42
2022-12-15T18:13:35.670Z,39.60
2022-12-15T18:16:04.754Z,37.28
2022-12-15T18:18:35.320Z,36.63
2022-12-15T18:41:28.216Z,38.20
2022-12-15T18:43:58.976Z,38.70
2022-12-15T18:46:28.432Z,36.88
2022-12-15T18:48:56.912Z,34.28
2022-12-15T18:51:30.910Z,39.17
2022-12-15T18:54:02.753Z,37.88
2022-12-15T18:56:30.705Z,36.10
2022-12-15T18:59:02.180Z,37.88
2022-12-15T19:01:30.618Z,37.92
2022-12-15T19:04:01.956Z,32.53
2022-12-15T19:06:43.914Z,32.90
2022-12-15T19:09:21.806Z,32.30
2022-12-15T19:12:19.548Z,31.88
2022-12-15T19:14:55.022Z,35.10
2022-12-15T19:17:43.149Z,32.05
2022-12-15T19:20:55.570Z,34.40
2022-12-15T19:25:53.185Z,36.70
2022-12-15T19:28:24.411Z,35.13
2022-12-15T19:30:53.376Z,33.30
2022-12-15T19:33:21.576Z,30.55
2022-12-15T19:35:51.594Z,33.13
2022-12-15T19:38:27.313Z,35.78
2022-12-15T19:40:56.390Z,36.58
2022-12-15T19:43:25.519Z,35.33
2022-12-15T19:45:53.944Z,34.75
2022-12-15T19:48:24.091Z,35.58
2022-12-15T19:50:54.637Z,35.47
2022-12-15T19:53:27.300Z,36.90
2022-12-15T19:55:59.007Z,37.10
2022-12-15T19:58:33.642Z,38.00
2022-12-15T20:01:06.945Z,35.53
2022-12-15T20:03:36.931Z,29.98
2022-12-15T20:06:17.477Z,28.67
2022-12-15T20:08:52.362Z,28.20
2022-12-15T20:11:27.056Z,30.08
2022-12-15T20:13:56.233Z,30.20
2022-12-15T20:16:24.873Z,29.02
2022-12-15T20:18:56.058Z,28.75
2022-12-15T20:21:32.363Z,28.83
2022-12-15T20:24:07.537Z,33.78
2022-12-15T20:26:37.589Z,34.50
2022-12-15T20:29:12.095Z,31.52
2022-12-15T20:31:40.653Z,34.05
2022-12-15T20:34:08.830Z,30.40
2022-12-15T20:36:36.957Z,30.95
2022-12-15T20:39:10.677Z,32.90
2022-12-15T20:41:38.943Z,30.38
2022-12-15T20:44:13.436Z,29.13
2022-12-15T20:46:43.135Z,31.85
2022-12-15T20:49:20.165Z,31.00
2022-12-15T20:51:50.005Z,32.50
2022-12-15T20:54:21.924Z,31.58
2022-12-15T20:56:50.656Z,33.33
2022-12-15T20:59:19.495Z,31.63
2022-12-15T21:01:48.339Z,32.05
2022-12-15T21:04:29.960Z,34.80
2022-12-15T21:06:58.797Z,32.60
2022-12-15T21:09:26.685Z,30.80
2022-12-15T21:11:55.142Z,33.67
2022-12-15T21:14:25.069Z,33.97
2022-12-15T21:16:53.433Z,31.55
2022-12-15T21:19:22.837Z,31.63
2022-12-15T21:21:55.575Z,31.45
2022-12-15T21:24:27.340Z,30.98
2022-12-15T21:29:28.430Z,35.88
2022-12-15T21:31:56.419Z,40.25
2022-12-15T21:34:24.812Z,37.72
2022-12-15T21:36:55.283Z,41.13
2022-12-15T21:39:35.575Z,32.08
2022-12-15T21:42:14.305Z,32.95
2022-12-15T21:44:43.031Z,36.45
2022-12-15T21:47:50.400Z,36.03
2022-12-15T21:50:20.450Z,35.30
2022-12-15T21:52:48.833Z,35.78
2022-12-15T21:55:18.937Z,33.92
2022-12-15T21:57:46.891Z,33.75
2022-12-15T22:00:18.442Z,34.00
2022-12-15T22:02:48.894Z,33.88
2022-12-15T22:05:20.389Z,38.97
2022-12-15T22:07:49.625Z,32.47
2022-12-15T22:10:18.262Z,36.03
2022-12-15T22:12:59.041Z,36.53
2022-12-15T22:15:29.243Z,32.97
2022-12-15T22:17:56.991Z,31.83
2022-12-15T22:20:25.728Z,31.67
2022-12-15T22:22:53.533Z,32.33
2022-12-15T22:25:25.636Z,31.38
2022-12-15T22:27:54.781Z,30.98
2022-12-15T22:30:26.601Z,31.77
2022-12-15T22:32:54.707Z,28.52
2022-12-15T22:35:25.843Z,30.17
2022-12-15T22:37:55.248Z,30.75
2022-12-15T22:40:38.833Z,30.77
2022-12-15T22:43:21.750Z,32.17
2022-12-15T22:45:53.275Z,30.98
2022-12-15T22:48:24.385Z,33.47
2022-12-15T22:50:52.409Z,31.55
2022-12-15T22:53:21.068Z,31.83
2022-12-15T22:55:51.069Z,32.65
2022-12-15T22:58:53.560Z,31.75
2022-12-15T23:01:21.671Z,31.55
2022-12-15T23:03:52.143Z,29.10
2022-12-15T23:06:20.345Z,31.13
2022-12-15T23:08:55.853Z,32.20
2022-12-15T23:11:37.090Z,30.77
2022-12-15T23:14:16.609Z,22.42
2022-12-15T23:16:46.394Z,29.40
2022-12-15T23:19:23.909Z,32.40
2022-12-15T23:21:52.331Z,31.40
2022-12-15T23:24:20.289Z,28.83
2022-12-15T23:26:49.039Z,30.55
2022-12-15T23:29:16.983Z,31.13
2022-12-15T23:31:44.743Z,28.35
2022-12-15T23:34:12.685Z,32.35
2022-12-15T23:36:40.512Z,28.98
2022-12-15T23:39:08.488Z,34.10
2022-12-15T23:41:36.294Z,29.42
2022-12-15T23:44:04.004Z,30.38
2022-12-15T23:46:31.767Z,31.85
2022-12-15T23:48:59.936Z,28.88
2022-12-15T23:51:27.896Z,30.35
2022-12-15T23:53:55.630Z,30.63
2022-12-15T23:56:25.135Z,30.05
2022-12-15T23:58:59.275Z,29.95
